• Join FlightAware (Why Join?)
  • Login
  • US Flag 
02:03PM EDT


 

Airport Tracker/Info


-or-


 

Live Flight TrackerFlight Track Log ✈ DAL863 ✈ 05-May-2013 ✈ KJFK - KLAX

Flight Track Log - Related Links

Times and Time Zones

All times are in EDT time to prevent confusion due to time zone crossing. See the DAL863 flight status page for this flight to view local times or setup timezone preferences in your user account.

Time Position Orientation Groundspeed Altitude Reporting Facility
EDT Latitude Longitude Course Direction KTS MPH feet Rate Location/Type
12:30PM 40.6290 -73.7760 122° Southeast 160 184 900  Level FlightAware
12:31PM 40.6190 -73.7650 140° Southeast 181 208 1,500 1,680 Climbing FlightAware
12:31PM 40.6070 -73.7540 145° Southeast 208 239 1,900 1,800 Climbing FlightAware
12:31PM 40.5960 -73.7430 143° Southeast 221 254 2,400 1,680 Climbing FlightAware
12:31PM 40.5900 -73.7300 121° Southeast 234 269 2,600 1,500 Climbing FlightAware
12:32PM 40.5870 -73.7160 106° East 243 280 2,900 2,520 Climbing FlightAware
12:32PM 40.5990 -73.6830 64° Northeast 250 288 4,100 2,400 Climbing FlightAware
12:32PM 40.6130 -73.6710 33° Northeast 253 291 4,500 1,020 Climbing FlightAware
12:33PM 40.6390 -73.6500 32° Northeast 263 303 4,800 1,620 Climbing FlightAware
12:33PM 40.6690 -73.6230 34° Northeast 258 297 6,000 1,800 Climbing FlightAware
12:34PM 40.6940 -73.6000 35° Northeast 267 307 6,500 1,500 Climbing FlightAware
12:34PM 40.7240 -73.5720 35° Northeast 267 307 7,400 2,220 Climbing FlightAware
12:34PM 40.7400 -73.5580 34° Northeast 272 313 8,200 2,820 Climbing FlightAware
12:35PM 40.7670 -73.5390 28° Northeast 287 330 9,300 2,760 Climbing FlightAware
12:35PM 40.7760 -73.5370 10° North 291 335 9,600 2,100 Climbing FlightAware
12:35PM 40.8200 -73.5650 334° Northwest 327 376 10,700 1,440 Climbing FlightAware
12:36PM 40.8510 -73.6070 314° West 362 417 11,200 1,200 Climbing FlightAware
12:36PM 40.8725 -73.6358 315° West 379 436 11,600 2,820 Climbing FlightAware ADS-B
12:37PM 40.9142 -73.6917 315° West 373 429 13,500 3,780 Climbing FlightAware ADS-B
12:37PM 40.9520 -73.7423 315° West 354 407 15,800 2,820 Climbing FlightAware ADS-B
12:38PM 40.9887 -73.7912 315° West 376 433 16,500 720 Climbing FlightAware ADS-B
12:38PM 41.0274 -73.8428 315° West 389 448 16,600 180 Climbing FlightAware ADS-B
12:39PM 41.0659 -73.8945 315° West 390 449 16,700 120 Climbing FlightAware ADS-B
12:39PM 41.0811 -73.9150 315° West 388 447 16,700  Level FlightAware ADS-B
12:39PM 41.1064 -73.9492 314° West 389 448 16,700 1,140 Level FlightAware ADS-B
12:40PM 41.1512 -74.0096 315° West 384 442 17,800 2,100 Climbing FlightAware ADS-B
12:40PM 41.1949 -74.0688 314° West 390 449 19,200 2,280 Climbing FlightAware ADS-B
12:41PM 41.2353 -74.1235 314° West 396 456 20,400 2,220 Climbing FlightAware ADS-B
12:41PM 41.2746 -74.1769 314° West 401 461 21,500 1,980 Climbing FlightAware ADS-B
12:42PM 41.3206 -74.2394 314° West 409 471 22,600 1,860 Climbing FlightAware ADS-B
12:43PM 41.3647 -74.2997 314° West 414 476 23,700 1,860 Climbing FlightAware ADS-B
12:43PM 41.3959 -74.3445 313° West 422 486 24,400 1,620 Climbing FlightAware ADS-B
12:43PM 41.4189 -74.3864 306° West 427 491 24,900 900 Climbing FlightAware ADS-B
12:44PM 41.4383 -74.4283 302° West 431 496 25,000 120 Climbing FlightAware ADS-B
12:44PM 41.4608 -74.4800 300° West 432 497 25,000 600 Level FlightAware ADS-B
12:45PM 41.4934 -74.5568 300° West 433 498 25,600 1,380 Climbing FlightAware ADS-B
12:45PM 41.5238 -74.6281 300° West 436 502 26,500 1,680 Climbing FlightAware ADS-B
12:46PM 41.5574 -74.7064 300° West 438 504 27,400 1,620 Climbing FlightAware ADS-B
12:46PM 41.5898 -74.7815 300° West 439 505 28,300 1,500 Climbing FlightAware ADS-B
12:47PM 41.6248 -74.8631 300° West 446 513 29,100 1,260 Climbing FlightAware ADS-B
12:47PM 41.6572 -74.9390 300° West 452 520 29,700 1,320 Climbing FlightAware ADS-B
12:48PM 41.6883 -75.0122 300° West 454 522 30,500 1,740 Climbing FlightAware ADS-B
12:48PM 41.7216 -75.0906 300° West 448 516 31,500 1,740 Climbing FlightAware ADS-B
12:49PM 41.7541 -75.1674 300° West 445 512 32,400 1,620 Climbing FlightAware ADS-B
12:49PM 41.7843 -75.2388 300° West 441 507 33,200 1,800 Climbing FlightAware ADS-B
12:50PM 41.8261 -75.3377 300° West 429 494 34,600 1,920 Climbing FlightAware ADS-B
12:50PM 41.8333 -75.3333 300° West 450 518 35,200 1,500 Climbing Toronto Center
12:51PM 41.8692 -75.4389 295° West 448 516 36,000 480 Climbing New York Center
12:52PM 41.9242 -75.5739 299° West 429 494 36,000  Level New York Center
12:53PM 41.9831 -75.7119 300° West 429 494 36,000  Level New York Center
12:54PM 42.0414 -75.8533 299° West 435 501 36,000  Level New York Center
12:56PM 42.1625 -76.1594 298° West 437 503 36,000  Level Cleveland Center
12:57PM 42.2100 -76.3075 293° West 437 503 36,000  Level Cleveland Center
12:58PM 42.2617 -76.4697 293° West 437 503 36,000  Level Cleveland Center
12:59PM 42.3083 -76.6128 294° West 432 497 36,000  Level Cleveland Center
01:00PM 42.3550 -76.7589 293° West 426 490 36,000  Level Cleveland Center
01:01PM 42.4017 -76.9050 293° West 426 490 36,000  Level Cleveland Center
01:02PM 42.4478 -77.0517 293° West 426 490 36,000  Level Cleveland Center
01:03PM 42.4919 -77.2011 292° West 426 490 36,000  Level Cleveland Center
01:04PM 42.5400 -77.3508 294° West 426 490 36,000  Level Cleveland Center
01:05PM 42.5814 -77.4869 292° West 426 490 36,000  Level Cleveland Center
01:06PM 42.6269 -77.6369 292° West 426 490 36,000  Level Cleveland Center
01:07PM 42.6744 -77.7903 293° West 431 496 36,000  Level Cleveland Center
01:08PM 42.7219 -77.9464 293° West 443 510 36,000  Level Cleveland Center
01:09PM 42.7692 -78.1000 293° West 443 510 36,000  Level Cleveland Center
01:10PM 42.8142 -78.2567 291° West 443 510 36,000  Level Cleveland Center
01:11PM 42.8608 -78.4108 292° West 443 510 36,000  Level Cleveland Center
01:12PM 42.9053 -78.5650 292° West 443 510 36,000  Level Cleveland Center
01:13PM 42.9372 -78.7228 286° West 443 510 36,000  Level Cleveland Center
01:14PM 42.9542 -78.8869 278° West 438 504 36,000  Level Cleveland Center
01:14PM 42.9500 -78.9333 263° West 440 506 36,000  Level Toronto Center
01:20PM 43.0490 -79.9410 263° West 433 498 36,000  Level FlightAware
01:21PM 43.0560 -80.0230 277° West 433 498 36,000  Level FlightAware
01:22PM 43.0670 -80.1490 277° West 432 497 36,000  Level FlightAware
01:22PM 43.0770 -80.2650 277° West 432 497 36,000  Level FlightAware
01:23PM 43.0850 -80.3630 276° West 432 497 36,000  Level FlightAware
01:24PM 43.0940 -80.4730 276° West 432 497 36,000  Level FlightAware
01:24PM 43.1010 -80.5640 276° West 432 497 36,000  Level FlightAware
01:25PM 43.1080 -80.6470 277° West 432 497 36,000  Level FlightAware
01:25PM 43.1150 -80.7350 276° West 431 496 36,000  Level FlightAware
01:26PM 43.1230 -80.8390 276° West 431 496 36,000  Level FlightAware
01:26PM 43.1167 -80.8833 276° West 430 495 36,000  Level Toronto Center
01:27PM 43.1167 -81.0500 270° West 430 495 36,000  Level Toronto Center
01:34PM 43.2140 -82.0690 270° West 433 498 36,000  Level FlightAware
01:34PM 43.2230 -82.2080 275° West 435 501 36,000  Level FlightAware
01:35PM 43.2290 -82.2900 276° West 436 502 36,000  Level FlightAware
01:35PM 43.2340 -82.3750 275° West 436 502 36,000  Level FlightAware
01:36PM 43.2400 -82.4710 275° West 437 503 36,000  Level FlightAware
01:37PM 43.2460 -82.5650 275° West 438 504 36,000  Level FlightAware
01:37PM 43.2520 -82.6560 275° West 438 504 36,000  Level FlightAware
01:38PM 43.2560 -82.7640 273° West 437 503 36,000  Level FlightAware
01:39PM 43.2560 -82.9100 270° West 438 504 36,000  Level FlightAware
01:39PM 43.2550 -82.9930 269° West 438 504 36,000  Level FlightAware
01:40PM 43.2550 -83.1020 270° West 439 505 36,000  Level FlightAware
01:40PM 43.2550 -83.1830 270° West 440 506 36,000  Level FlightAware
01:41PM 43.2540 -83.2750 269° West 440 506 36,000  Level FlightAware
01:41PM 43.2540 -83.3410 270° West 441 507 36,000  Level FlightAware
01:42PM 43.2530 -83.4600 269° West 442 509 36,000  Level FlightAware
01:42PM 43.2520 -83.5390 269° West 442 509 36,000  Level FlightAware
01:43PM 43.2520 -83.6340 270° West 443 510 36,000  Level FlightAware
01:44PM 43.2510 -83.7520 269° West 443 510 36,000  Level FlightAware
01:45PM 43.2490 -83.8790 269° West 443 510 36,000  Level FlightAware
01:45PM 43.2480 -83.9690 269° West 443 510 36,000  Level FlightAware
01:46PM 43.2460 -84.1210 269° West 443 510 36,000  Level FlightAware
01:46PM 43.2450 -84.2260 269° West 443 510 36,000  Level FlightAware
01:47PM 43.2440 -84.3100 269° West 443 510 36,000  Level FlightAware
01:48PM 43.2420 -84.4180 269° West 443 510 36,000  Level FlightAware
01:48PM 43.2400 -84.5460 269° West 443 510 36,000  Level FlightAware
01:49PM 43.2380 -84.6750 269° West 443 510 36,000  Level FlightAware
01:50PM 43.2360 -84.7710 268° West 444 511 36,000  Level FlightAware
01:50PM 43.2340 -84.8830 269° West 445 512 36,000  Level FlightAware
01:51PM 43.2320 -84.9840 268° West 445 512 36,000  Level FlightAware
01:52PM 43.2300 -85.0800 268° West 445 512 36,000  Level FlightAware
01:52PM 43.2280 -85.1650 268° West 445 512 36,000  Level FlightAware
01:53PM 43.2260 -85.2480 268° West 444 511 36,000  Level FlightAware
01:53PM 43.2240 -85.3610 269° West 443 510 36,000  Level FlightAware
01:54PM 43.2210 -85.4570 268° West 442 509 36,000  Level FlightAware
01:54PM 43.2190 -85.5720 269° West 440 506 36,000 180 Level FlightAware
01:55PM 43.2160 -85.6790 268° West 439 505 36,300 660 Climbing FlightAware
01:56PM 43.2130 -85.7630 267° West 442 509 36,800 720 Climbing FlightAware
01:57PM 43.2080 -85.9480 268° West 454 522 37,500 600 Climbing FlightAware
01:57PM 43.2060 -86.0380 268° West 457 526 37,800 420 Climbing FlightAware
01:58PM 43.2020 -86.1440 267° West 459 528 38,000 180 Climbing FlightAware
01:58PM 43.2010 -86.2060 269° West 458 527 38,000  Level FlightAware
01:59PM 43.1960 -86.3490 267° West 455 524 38,000  Level FlightAware
02:00PM 43.1930 -86.4500 268° West 456 525 38,000  Level FlightAware
02:00PM 43.1880 -86.5850 267° West 456 525 38,000  Level FlightAware
02:01PM 43.1840 -86.7010 267° West 456 525 38,000  Level FlightAware
02:02PM 43.1800 -86.8110 267° West 456 525 38,000  Level FlightAware
02:02PM 43.1760 -86.9270 267° West 455 524 38,000  Level FlightAware
02:03PM 43.1700 -87.0740 267° West 455 524 38,000  Level FlightAware
02:04PM 43.1660 -87.1890 267° West 455 524 38,000  Level FlightAware
02:05PM 43.1620 -87.2920 267° West 455 524 38,000  Level FlightAware
02:05PM 43.1560 -87.4320 267° West 456 525 38,000  Level FlightAware
02:06PM 43.1520 -87.5270 267° West 456 525 38,000  Level FlightAware
02:06PM 43.1470 -87.6310 266° West 455 524 38,000  Level FlightAware
02:07PM 43.1430 -87.7330 267° West 455 524 38,000  Level FlightAware
02:08PM 43.1380 -87.8350 266° West 454 522 38,000  Level FlightAware
02:08PM 43.1340 -87.9170 266° West 453 521 38,000  Level FlightAware
02:09PM 43.1300 -88.0020 266° West 452 520 38,000  Level FlightAware
02:09PM 43.1260 -88.1000 267° West 452 520 38,000  Level FlightAware
02:10PM 43.1200 -88.2180 266° West 452 520 38,000  Level FlightAware
02:11PM 43.1030 -88.3310 258° West 442 509 38,000  Level FlightAware
02:11PM 43.0860 -88.3950 250° West 440 506 38,000  Level FlightAware
02:12PM 43.0460 -88.5340 249° West 438 504 38,000  Level FlightAware
02:12PM 43.0240 -88.6120 249° West 438 504 38,000  Level FlightAware
02:13PM 42.9970 -88.7060 249° West 437 503 38,000  Level FlightAware
02:13PM 42.9760 -88.7800 249° West 436 502 38,000  Level FlightAware
02:14PM 42.9510 -88.8690 249° West 436 502 38,000  Level FlightAware
02:15PM 42.9210 -88.9720 248° West 436 502 38,000  Level FlightAware
02:16PM 42.8810 -89.1110 249° West 434 499 38,000  Level FlightAware
02:16PM 42.8450 -89.2350 248° West 432 497 38,000  Level FlightAware
02:17PM 42.8220 -89.3110 248° West 433 498 38,000  Level FlightAware
02:18PM 42.7930 -89.4090 248° West 434 499 38,000  Level FlightAware
02:18PM 42.7620 -89.5140 248° West 436 502 38,000  Level FlightAware
02:19PM 42.7250 -89.6420 249° West 437 503 38,000  Level FlightAware
02:20PM 42.7020 -89.7190 248° West 438 504 38,000  Level FlightAware
02:20PM 42.6790 -89.7940 247° West 439 505 38,000  Level FlightAware
02:21PM 42.6530 -89.8810 248° West 440 506 38,000  Level FlightAware
02:21PM 42.6290 -89.9630 248° West 441 507 38,000  Level FlightAware
02:22PM 42.5940 -90.0770 247° West 441 507 38,000  Level FlightAware
02:23PM 42.5600 -90.1930 248° West 443 510 38,000  Level FlightAware
02:24PM 42.5200 -90.3220 247° West 444 511 38,000  Level FlightAware
02:24PM 42.4860 -90.4350 248° West 444 511 38,000  Level FlightAware
02:25PM 42.4620 -90.5130 247° West 445 512 38,000  Level FlightAware
02:25PM 42.4310 -90.6150 248° West 446 513 38,000  Level FlightAware
02:26PM 42.4010 -90.7120 247° West 445 512 38,000  Level FlightAware
02:27PM 42.3660 -90.8230 247° West 445 512 38,000  Level FlightAware
02:27PM 42.3420 -90.8990 247° West 445 512 38,000  Level FlightAware
02:28PM 42.3130 -90.9910 247° West 445 512 38,000  Level FlightAware
02:28PM 42.2930 -91.0560 247° West 445 512 38,000  Level FlightAware
02:29PM 42.2530 -91.1830 247° West 445 512 38,000  Level FlightAware
02:30PM 42.2190 -91.2900 247° West 444 511 38,000  Level FlightAware
02:31PM 42.1770 -91.4230 247° West 443 510 38,000  Level FlightAware
02:31PM 42.1530 -91.4980 247° West 443 510 38,000  Level FlightAware
02:32PM 42.1220 -91.5950 247° West 442 509 38,000  Level FlightAware
02:32PM 42.0940 -91.6810 246° West 441 507 38,000  Level FlightAware
02:33PM 42.0590 -91.7890 246° West 439 505 38,000  Level FlightAware
02:34PM 42.0240 -91.8990 247° West 440 506 38,000  Level FlightAware
02:35PM 41.9930 -91.9940 246° West 440 506 38,000  Level FlightAware
02:35PM 41.9670 -92.0720 246° West 441 507 38,000  Level FlightAware
02:36PM 41.9380 -92.1610 246° West 442 509 38,000  Level FlightAware
02:36PM 41.9120 -92.2420 247° West 442 509 38,000  Level FlightAware
02:37PM 41.8960 -92.2910 246° West 442 509 38,000  Level FlightAware
02:37PM 41.8650 -92.3830 246° West 443 510 38,000  Level FlightAware
02:38PM 41.8230 -92.5120 246° West 443 510 38,000  Level FlightAware
02:39PM 41.7810 -92.6370 246° West 443 510 38,000  Level FlightAware
02:39PM 41.7550 -92.7140 246° West 443 510 38,000  Level FlightAware
02:40PM 41.7220 -92.8150 246° West 442 509 38,000  Level FlightAware
02:41PM 41.6940 -92.8960 245° Southwest 443 510 38,000  Level FlightAware
02:41PM 41.6640 -92.9870 246° West 442 509 38,000  Level FlightAware
02:42PM 41.6260 -93.0970 245° Southwest 442 509 38,000  Level FlightAware
02:43PM 41.5920 -93.1970 246° West 442 509 38,000  Level FlightAware
02:43PM 41.5680 -93.2690 246° West 441 507 38,000  Level FlightAware
02:44PM 41.5340 -93.3700 246° West 440 506 38,000  Level FlightAware
02:44PM 41.5080 -93.4430 245° Southwest 439 505 38,000  Level FlightAware
02:45PM 41.4750 -93.5400 246° West 436 502 38,000  Level FlightAware
02:46PM 41.4430 -93.6370 246° West 435 501 38,000  Level FlightAware
02:46PM 41.4200 -93.7590 256° West 434 499 38,000  Level FlightAware
02:47PM 41.4050 -93.8640 259° West 433 498 38,000  Level FlightAware
02:48PM 41.3900 -93.9580 258° West 430 495 38,000  Level FlightAware
02:48PM 41.3760 -94.0500 259° West 429 494 38,000  Level FlightAware
02:49PM 41.3570 -94.1740 259° West 426 490 38,000  Level FlightAware
02:49PM 41.3450 -94.2490 258° West 425 489 38,000  Level FlightAware
02:50PM 41.3280 -94.3540 258° West 425 489 38,000  Level FlightAware
02:51PM 41.3180 -94.4190 258° West 425 489 38,000  Level FlightAware
02:52PM 41.3010 -94.5280 258° West 425 489 38,000  Level FlightAware
02:52PM 41.2940 -94.5710 258° West 425 489 38,000  Level FlightAware
02:53PM 41.2800 -94.6580 258° West 425 489 38,000  Level FlightAware
02:53PM 41.2660 -94.7450 258° West 425 489 38,000  Level FlightAware
02:54PM 41.2520 -94.8320 258° West 425 489 38,000  Level FlightAware
02:55PM 41.2380 -94.9190 258° West 425 489 38,000  Level FlightAware
02:55PM 41.2280 -94.9850 259° West 425 489 38,000  Level FlightAware
02:56PM 41.2140 -95.0720 258° West 425 489 38,000  Level FlightAware
02:56PM 41.2000 -95.1580 258° West 425 489 38,000  Level FlightAware
02:57PM 41.1860 -95.2450 258° West 425 489 38,000  Level FlightAware
02:58PM 41.1720 -95.3320 258° West 425 489 38,000  Level FlightAware
02:58PM 41.1580 -95.4190 258° West 425 489 38,000  Level FlightAware
02:59PM 41.1440 -95.5060 258° West 425 489 38,000  Level FlightAware
03:00PM 41.0908 -95.7856 258° West 436 502 38,000  Level Minneapolis Center
03:01PM 41.0647 -95.9431 258° West 433 498 38,000  Level Minneapolis Center
03:02PM 41.0317 -96.1297 257° West 430 495 38,000  Level Minneapolis Center
03:03PM 41.0058 -96.2817 257° West 424 488 38,000  Level Minneapolis Center
03:04PM 40.9789 -96.4322 257° West 420 483 38,000  Level Minneapolis Center
03:05PM 40.9522 -96.5822 257° West 417 480 38,000  Level Minneapolis Center
03:06PM 40.9253 -96.7300 256° West 415 478 38,000  Level Minneapolis Center
03:07PM 40.8989 -96.8786 257° West 415 478 38,000  Level Minneapolis Center
03:08PM 40.8750 -97.0253 258° West 411 473 38,000  Level Minneapolis Center
03:09PM 40.8486 -97.1739 257° West 413 475 38,000  Level Minneapolis Center
03:10PM 40.8189 -97.3533 258° West 417 480 38,000  Level Minneapolis Center
03:11PM 40.7939 -97.4872 256° West 419 482 38,000  Level Minneapolis Center
03:12PM 40.7686 -97.6386 258° West 421 484 38,000  Level Minneapolis Center
03:13PM 40.7408 -97.7928 257° West 427 491 38,000  Level Minneapolis Center
03:14PM 40.7078 -97.9756 257° West 428 493 38,000  Level Minneapolis Center
03:15PM 40.6800 -98.1275 256° West 426 490 38,000  Level Minneapolis Center
03:16PM 40.6528 -98.2808 257° West 426 490 38,000  Level Minneapolis Center
03:17PM 40.6242 -98.4311 256° West 424 488 38,000  Level Minneapolis Center
03:18PM 40.5981 -98.5806 257° West 418 481 38,000  Level Minneapolis Center
03:19PM 40.5694 -98.7289 256° West 417 480 38,000  Level Minneapolis Center
03:20PM 40.5417 -98.8775 256° West 416 479 38,000  Level Minneapolis Center
03:21PM 40.5139 -99.0242 256° West 414 476 38,000  Level Minneapolis Center
03:22PM 40.4869 -99.1697 256° West 410 472 38,000  Level Minneapolis Center
03:23PM 40.4581 -99.3147 255° West 410 472 38,000  Level Denver Center
03:24PM 40.4303 -99.4614 256° West 413 475 38,000  Level Denver Center
03:25PM 40.4014 -99.6083 256° West 415 478 38,000  Level Denver Center
03:26PM 40.3722 -99.7556 255° West 415 478 38,000  Level Denver Center
03:27PM 40.3447 -99.8972 256° West 416 479 38,000  Level Denver Center
03:28PM 40.3192 -100.0617 259° West 414 476 38,000  Level Denver Center
03:29PM 40.2975 -100.2014 259° West 409 471 38,000  Level Denver Center
03:36PM 40.1514 -101.1140 259° West 387 445 38,000  Level FlightAware ADS-B
03:36PM 40.1396 -101.1850 258° West 387 445 38,000  Level FlightAware ADS-B
03:37PM 40.1283 -101.2530 258° West 386 444 38,000  Level FlightAware ADS-B
03:37PM 40.1169 -101.3210 258° West 387 445 38,000  Level FlightAware ADS-B
03:38PM 40.1054 -101.3900 258° West 387 445 38,000  Level FlightAware ADS-B
03:38PM 40.0923 -101.4670 257° West 388 447 38,000  Level FlightAware ADS-B
03:39PM 40.0802 -101.5390 258° West 389 448 38,000  Level FlightAware ADS-B
03:39PM 40.0684 -101.6090 258° West 389 448 38,000  Level FlightAware ADS-B
03:40PM 40.0562 -101.6810 258° West 390 449 38,000  Level FlightAware ADS-B
03:40PM 40.0443 -101.7500 257° West 390 449 38,000  Level FlightAware ADS-B
03:41PM 40.0325 -101.8190 257° West 391 450 38,000  Level FlightAware ADS-B
03:41PM 40.0204 -101.8890 257° West 392 451 38,000  Level FlightAware ADS-B
03:42PM 40.0085 -101.9580 257° West 392 451 38,000  Level FlightAware ADS-B
03:42PM 39.9963 -102.0280 257° West 393 452 38,000  Level FlightAware ADS-B
03:43PM 39.9838 -102.1000 257° West 394 453 38,000  Level FlightAware ADS-B
03:43PM 39.9714 -102.1700 257° West 396 456 38,000  Level FlightAware ADS-B
03:44PM 39.9586 -102.2430 257° West 396 456 38,000  Level FlightAware ADS-B
03:44PM 39.9463 -102.3130 257° West 396 456 38,000  Level FlightAware ADS-B
03:45PM 39.9338 -102.3840 257° West 397 457 38,000  Level FlightAware ADS-B
03:45PM 39.9211 -102.4550 257° West 397 457 38,000  Level FlightAware ADS-B
03:46PM 39.9065 -102.5370 257° West 397 457 38,000  Level FlightAware ADS-B
03:46PM 39.8938 -102.6070 257° West 396 456 38,000  Level FlightAware ADS-B
03:47PM 39.8806 -102.6810 257° West 396 456 38,000  Level FlightAware ADS-B
03:47PM 39.8679 -102.7520 257° West 396 456 38,000  Level FlightAware ADS-B
03:48PM 39.8553 -102.8210 257° West 396 456 38,000  Level FlightAware ADS-B
03:48PM 39.8426 -102.8910 257° West 395 455 38,000  Level FlightAware ADS-B
03:49PM 39.8298 -102.9610 257° West 393 452 38,000  Level FlightAware ADS-B
03:49PM 39.8172 -103.0290 256° West 391 450 38,000  Level FlightAware ADS-B
03:50PM 39.8045 -103.0990 257° West 390 449 38,000  Level FlightAware ADS-B
03:50PM 39.7916 -103.1690 257° West 389 448 38,000  Level FlightAware ADS-B
03:51PM 39.7789 -103.2370 256° West 387 445 38,000  Level FlightAware ADS-B
03:51PM 39.7663 -103.3050 256° West 386 444 38,000  Level FlightAware ADS-B
03:52PM 39.7536 -103.3730 256° West 386 444 38,000  Level FlightAware ADS-B
03:52PM 39.7410 -103.4400 256° West 385 443 38,000  Level FlightAware ADS-B
03:53PM 39.7281 -103.5090 256° West 384 442 38,000  Level FlightAware ADS-B
03:54PM 39.7151 -103.5780 256° West 384 442 38,000  Level FlightAware ADS-B
03:54PM 39.7023 -103.6460 256° West 384 442 38,000  Level FlightAware ADS-B
03:55PM 39.6895 -103.7130 256° West 384 442 38,000  Level FlightAware ADS-B
03:55PM 39.6767 -103.7810 256° West 384 442 38,000  Level FlightAware ADS-B
03:56PM 39.6638 -103.8480 256° West 384 442 38,000  Level FlightAware ADS-B
03:56PM 39.6508 -103.9150 256° West 384 442 38,000  Level FlightAware ADS-B
03:57PM 39.6369 -103.9880 256° West 386 444 38,000  Level FlightAware ADS-B
03:57PM 39.6238 -104.0560 256° West 387 445 38,000  Level FlightAware ADS-B
03:58PM 39.6106 -104.1240 256° West 387 445 38,000  Level FlightAware ADS-B
03:58PM 39.5973 -104.1920 256° West 388 447 38,000  Level FlightAware ADS-B
03:59PM 39.5838 -104.2610 256° West 388 447 38,000  Level FlightAware ADS-B
03:59PM 39.5696 -104.3340 256° West 389 448 38,000  Level FlightAware ADS-B
04:00PM 39.5559 -104.4030 256° West 389 448 38,000  Level FlightAware ADS-B
04:00PM 39.5424 -104.4720 256° West 389 448 38,000  Level FlightAware ADS-B
04:01PM 39.5274 -104.5480 256° West 390 449 38,000  Level FlightAware ADS-B
04:01PM 39.5135 -104.6180 256° West 390 449 38,000  Level FlightAware ADS-B
04:02PM 39.4999 -104.6860 255° West 390 449 38,000  Level FlightAware ADS-B
04:02PM 39.4862 -104.7540 255° West 391 450 38,000  Level FlightAware ADS-B
04:03PM 39.4724 -104.8230 255° West 390 449 38,000  Level FlightAware ADS-B
04:03PM 39.4586 -104.8920 255° West 390 449 38,000  Level FlightAware ADS-B
04:04PM 39.4438 -104.9650 255° West 391 450 38,000  Level FlightAware ADS-B
04:04PM 39.4299 -105.0340 255° West 391 450 38,000  Level FlightAware ADS-B
04:05PM 39.4153 -105.1050 255° West 391 450 38,000  Level FlightAware ADS-B
04:05PM 39.4013 -105.1740 255° West 391 450 38,000  Level FlightAware ADS-B
04:06PM 39.3872 -105.2430 255° West 391 450 38,000  Level FlightAware ADS-B
04:06PM 39.3731 -105.3120 255° West 391 450 38,000  Level FlightAware ADS-B
04:07PM 39.3591 -105.3800 255° West 391 450 38,000  Level FlightAware ADS-B
04:07PM 39.3439 -105.4530 255° West 391 450 38,000  Level FlightAware ADS-B
04:08PM 39.3265 -105.5370 255° West 391 450 38,000  Level FlightAware ADS-B
04:09PM 39.3114 -105.6100 255° West 391 450 38,000  Level FlightAware ADS-B
04:09PM 39.2972 -105.6770 255° West 392 451 38,000  Level FlightAware ADS-B
04:10PM 39.2829 -105.7460 255° West 392 451 38,000  Level FlightAware ADS-B
04:10PM 39.2681 -105.8160 255° West 392 451 38,000  Level FlightAware ADS-B
04:11PM 39.2538 -105.8840 255° West 392 451 38,000  Level FlightAware ADS-B
04:11PM 39.2395 -105.9510 255° West 392 451 38,000  Level FlightAware ADS-B
04:12PM 39.2251 -106.0190 255° West 392 451 38,000  Level FlightAware ADS-B
04:12PM 39.2104 -106.0880 255° West 391 450 38,000  Level FlightAware ADS-B
04:13PM 39.1960 -106.1560 255° West 391 450 38,000  Level FlightAware ADS-B
04:13PM 39.1813 -106.2240 254° West 391 450 38,000  Level FlightAware ADS-B
04:14PM 39.1666 -106.2920 254° West 390 449 38,000  Level FlightAware ADS-B
04:14PM 39.1520 -106.3600 255° West 390 449 38,000  Level FlightAware ADS-B
04:15PM 39.1374 -106.4280 255° West 389 448 38,000  Level FlightAware ADS-B
04:15PM 39.1223 -106.4970 254° West 389 448 38,000  Level FlightAware ADS-B
04:16PM 39.1077 -106.5650 255° West 389 448 38,000  Level FlightAware ADS-B
04:16PM 39.0925 -106.6340 254° West 388 447 38,000  Level FlightAware ADS-B
04:17PM 39.0777 -106.7010 254° West 388 447 38,000  Level FlightAware ADS-B
04:17PM 39.0630 -106.7680 254° West 387 445 38,000  Level FlightAware ADS-B
04:18PM 39.0477 -106.8380 254° West 386 444 38,000  Level FlightAware ADS-B
04:18PM 39.0331 -106.9040 254° West 387 445 38,000  Level FlightAware ADS-B
04:19PM 39.0140 -106.9920 254° West 387 445 38,000  Level FlightAware
04:19PM 39.0070 -107.0210 253° West 387 445 38,000  Level FlightAware ADS-B
04:20PM 38.9919 -107.0890 254° West 387 445 38,000  Level FlightAware ADS-B
04:20PM 38.9769 -107.1560 254° West 388 447 38,000  Level FlightAware ADS-B
04:21PM 38.9620 -107.2220 254° West 389 448 38,000  Level FlightAware
04:21PM 38.9440 -107.3040 254° West 389 448 38,000  Level FlightAware
04:22PM 38.9142 -107.4340 254° West 389 448 38,000  Level FlightAware ADS-B
04:24PM 38.8570 -107.6860 254° West 390 449 38,000  Level FlightAware
04:25PM 38.8390 -107.7630 253° West 390 449 38,000  Level FlightAware
04:26PM 38.8170 -107.8590 254° West 391 450 38,000  Level FlightAware
04:26PM 38.7920 -107.9660 253° West 392 451 38,000  Level FlightAware
04:27PM 38.7750 -108.0400 254° West 392 451 38,000  Level FlightAware
04:28PM 38.7530 -108.1350 253° West 392 451 38,000  Level FlightAware
04:28PM 38.7310 -108.2280 253° West 392 451 38,000  Level FlightAware
04:29PM 38.7100 -108.3180 253° West 392 451 38,000  Level FlightAware
04:30PM 38.6840 -108.4280 253° West 392 451 38,000  Level FlightAware
04:31PM 38.6580 -108.5380 253° West 391 450 38,000  Level FlightAware
04:31PM 38.6440 -108.5950 253° West 393 452 38,000  Level FlightAware
04:32PM 38.6110 -108.7350 253° West 393 452 38,000  Level FlightAware
04:34PM 38.5540 -108.9700 253° West 395 455 38,000  Level FlightAware
04:35PM 38.5340 -109.0450 251° West 395 455 38,000  Level FlightAware
04:35PM 38.5150 -109.1210 252° West 395 455 38,000  Level FlightAware
04:36PM 38.4800 -109.2730 254° West 396 456 38,000  Level FlightAware
04:37PM 38.4580 -109.3630 253° West 395 455 38,000  Level FlightAware
04:37PM 38.4360 -109.4520 253° West 396 456 38,000  Level FlightAware
04:38PM 38.4120 -109.5510 253° West 397 457 38,000  Level FlightAware
04:39PM 38.3900 -109.6390 252° West 399 459 38,000  Level FlightAware
04:40PM 38.3650 -109.7380 252° West 399 459 38,000  Level FlightAware
04:40PM 38.3410 -109.8320 252° West 399 459 38,000  Level FlightAware
04:41PM 38.3200 -109.9150 252° West 400 460 38,000  Level FlightAware
04:42PM 38.2940 -110.0210 253° West 400 460 38,000  Level FlightAware
04:42PM 38.2720 -110.1090 252° West 399 459 38,000  Level FlightAware
04:43PM 38.2460 -110.2110 252° West 397 457 38,000  Level FlightAware
04:44PM 38.2230 -110.3000 252° West 396 456 38,000  Level FlightAware
04:44PM 38.2010 -110.3870 252° West 395 455 38,000  Level FlightAware
04:45PM 38.1740 -110.4890 251° West 395 455 38,000  Level FlightAware
04:46PM 38.1520 -110.5750 252° West 395 455 38,000  Level FlightAware
04:47PM 38.1260 -110.6750 252° West 393 452 38,000  Level FlightAware
04:47PM 38.1030 -110.7620 251° West 393 452 38,000  Level FlightAware
04:48PM 38.0810 -110.8500 252° West 391 450 38,000  Level FlightAware
04:49PM 38.0550 -110.9470 251° West 390 449 38,000  Level FlightAware
04:49PM 38.0330 -111.0280 251° West 391 450 38,000  Level FlightAware
04:50PM 38.0130 -111.1020 251° West 391 450 38,000  Level FlightAware
04:51PM 37.9930 -111.1760 251° West 391 450 38,000  Level FlightAware
04:51PM 37.9730 -111.2500 251° West 391 450 38,000  Level FlightAware
04:52PM 37.9480 -111.3420 251° West 391 450 38,000  Level FlightAware
04:53PM 37.9280 -111.4160 251° West 391 450 38,000  Level FlightAware
04:54PM 37.9080 -111.4890 251° West 391 450 38,000  Level FlightAware
04:54PM 37.8880 -111.5630 251° West 391 450 38,000  Level FlightAware
04:55PM 37.8680 -111.6370 251° West 391 450 38,000  Level FlightAware
04:56PM 37.8430 -111.7290 251° West 391 450 38,000  Level FlightAware
04:56PM 37.8230 -111.8020 251° West 391 450 38,000  Level FlightAware
04:57PM 37.8030 -111.8760 251° West 391 450 38,000  Level FlightAware
04:58PM 37.7830 -111.9500 251° West 391 450 38,000  Level FlightAware
04:58PM 37.7630 -112.0230 251° West 391 450 38,000  Level FlightAware
05:04PM 37.3630 -112.8130 238° Southwest 393 452 38,000  Level FlightAware
05:05PM 37.3120 -112.8920 231° Southwest 393 452 38,000  Level FlightAware
05:05PM 37.2660 -112.9620 230° Southwest 393 452 38,000  Level FlightAware
05:06PM 37.2140 -113.0420 231° Southwest 392 451 38,000  Level FlightAware
05:07PM 37.1670 -113.1140 231° Southwest 390 449 38,000  Level FlightAware
05:07PM 37.1230 -113.1810 231° Southwest 390 449 38,000  Level FlightAware
05:08PM 37.0730 -113.2580 231° Southwest 390 449 38,000  Level FlightAware
05:09PM 37.0280 -113.3270 231° Southwest 390 449 38,000  Level FlightAware
05:09PM 36.9740 -113.4090 231° Southwest 390 449 38,000  Level FlightAware
05:10PM 36.9270 -113.4800 230° Southwest 391 450 38,000  Level FlightAware
05:11PM 36.8820 -113.5490 231° Southwest 392 451 38,000  Level FlightAware
05:12PM 36.8310 -113.6260 230° Southwest 393 452 38,000  Level FlightAware
05:12PM 36.7850 -113.6950 230° Southwest 395 455 38,000  Level FlightAware
05:13PM 36.7320 -113.7750 230° Southwest 395 455 38,000  Level FlightAware
05:14PM 36.6840 -113.8460 230° Southwest 395 455 38,000  Level FlightAware
05:14PM 36.6390 -113.9150 231° Southwest 396 456 38,000  Level FlightAware
05:15PM 36.5860 -113.9930 230° Southwest 396 456 38,000  Level FlightAware
05:16PM 36.5390 -114.0640 231° Southwest 396 456 38,000  Level FlightAware
05:16PM 36.4850 -114.1440 230° Southwest 398 458 38,000  Level FlightAware
05:17PM 36.4380 -114.2140 230° Southwest 398 458 38,000  Level FlightAware
05:18PM 36.3900 -114.2850 230° Southwest 398 458 38,000  Level FlightAware
05:19PM 36.3380 -114.3620 230° Southwest 400 460 38,000  Level FlightAware
05:19PM 36.2900 -114.4320 230° Southwest 398 458 38,000  Level FlightAware
05:20PM 36.2360 -114.5120 230° Southwest 396 456 38,000  Level FlightAware
05:21PM 36.1900 -114.5800 230° Southwest 396 456 38,000  Level FlightAware
05:21PM 36.1420 -114.6500 230° Southwest 397 457 38,000  Level FlightAware
05:22PM 36.0890 -114.7280 230° Southwest 398 458 38,000  Level FlightAware
05:23PM 36.0350 -114.8070 230° Southwest 400 460 38,000  Level FlightAware
05:23PM 35.9870 -114.8760 229° Southwest 401 461 38,000  Level FlightAware
05:24PM 35.9310 -114.9520 228° Southwest 399 459 38,000  Level FlightAware
05:25PM 35.8810 -115.0190 227° Southwest 397 457 38,000  Level FlightAware
05:26PM 35.8330 -115.0850 228° Southwest 395 455 38,000  Level FlightAware
05:26PM 35.7780 -115.1590 228° Southwest 395 455 38,000  Level FlightAware
05:27PM 35.7290 -115.2260 228° Southwest 392 451 38,000  Level FlightAware
05:28PM 35.6810 -115.2910 228° Southwest 391 450 38,000  Level FlightAware
05:28PM 35.6240 -115.3680 228° Southwest 390 449 38,000  Level FlightAware
05:29PM 35.5760 -115.4320 227° Southwest 392 451 38,000  Level FlightAware
05:30PM 35.5220 -115.5050 228° Southwest 394 453 38,000 -480 Level FlightAware
05:30PM 35.4730 -115.5710 228° Southwest 395 455 37,400 -1,140 Descending FlightAware
05:31PM 35.4240 -115.6370 228° Southwest 397 457 36,500 -1,080 Descending FlightAware
05:32PM 35.3700 -115.7080 227° Southwest 387 445 35,900 -780 Descending FlightAware
05:33PM 35.3200 -115.7750 228° Southwest 381 438 35,400 -900 Descending FlightAware
05:33PM 35.2660 -115.8460 227° Southwest 375 432 34,700 -1,380 Descending FlightAware
05:34PM 35.2220 -115.9050 228° Southwest 368 423 33,500 -2,220 Descending FlightAware
05:35PM 35.1740 -115.9680 227° Southwest 364 419 31,800 -2,340 Descending FlightAware
05:35PM 35.1350 -116.0190 227° Southwest 360 414 30,600 -1,440 Descending FlightAware
05:36PM 35.0910 -116.0780 228° Southwest 358 412 30,000 -420 Descending FlightAware
05:37PM 35.0300 -116.1570 227° Southwest 362 417 30,000  Level FlightAware
05:37PM 34.9910 -116.2080 227° Southwest 362 417 30,000  Level FlightAware
05:38PM 34.9370 -116.2800 228° Southwest 363 418 30,000 -240 Level FlightAware
05:39PM 34.8850 -116.3480 227° Southwest 362 417 29,700 -660 Descending FlightAware
05:40PM 34.8390 -116.4080 227° Southwest 360 414 29,100 -900 Descending FlightAware
05:40PM 34.7950 -116.4660 227° Southwest 358 412 28,500 -480 Descending FlightAware
05:41PM 34.7490 -116.5250 227° Southwest 359 413 28,500 -900 Level FlightAware
05:42PM 34.6970 -116.5850 223° Southwest 357 411 27,300 -900 Descending FlightAware
05:42PM 34.6490 -116.6440 225° Southwest 357 411 27,300 -1,440 Level FlightAware
05:43PM 34.5790 -116.7300 225° Southwest 374 430 24,900 -2,640 Descending FlightAware
05:44PM 34.5270 -116.7940 225° Southwest 388 447 23,200 -1,380 Descending FlightAware
05:45PM 34.4750 -116.8570 225° Southwest 393 452 23,000 -1,380 Descending FlightAware
05:45PM 34.4190 -116.9260 225° Southwest 383 441 21,300 -1,860 Descending FlightAware
05:46PM 34.3640 -116.9930 225° Southwest 377 434 20,400 -1,200 Descending FlightAware
05:46PM 34.3333 -117.0167 225° Southwest 377 434 20,000 -1,140 Descending Southern California TRACON
05:47PM 34.2667 -117.1000 226° Southwest 371 427 19,000 -840 Descending Southern California TRACON
05:48PM 34.2614 -117.1156 248° West 374 430 19,000  Level Los Angeles Center
05:49PM 34.1808 -117.2117 225° Southwest 365 420 19,000 -960 Level Los Angeles Center
05:54PM 33.9970 -117.7880 225° Southwest 334 384 12,800 -1,140 Descending FlightAware
05:55PM 33.9890 -117.8690 263° West 324 373 12,200 -900 Descending FlightAware
05:56PM 33.9820 -117.9400 263° West 331 381 11,600 -1,200 Descending FlightAware
05:56PM 33.9740 -118.0250 264° West 324 373 10,500 -1,140 Descending FlightAware
05:57PM 33.9670 -118.0960 263° West 320 368 10,000 -600 Descending FlightAware
05:57PM 33.9650 -118.1190 264° West 319 367 10,000 -420 Level FlightAware
05:58PM 33.9600 -118.1710 263° West 297 342 9,700 -780 Descending FlightAware
05:58PM 33.9550 -118.2120 262° West 282 325 9,300 -1,020 Descending FlightAware
05:59PM 33.9510 -118.2590 264° West 273 314 8,800 -1,080 Descending FlightAware
05:59PM 33.9490 -118.2780 263° West 271 312 8,500 -1,200 Descending FlightAware
05:59PM 33.9370 -118.3130 248° West 264 304 8,000 -780 Descending FlightAware
06:00PM 33.9240 -118.3280 224° Southwest 270 311 8,000  Level FlightAware
06:00PM 33.9010 -118.3550 224° Southwest 268 308 8,000  Level FlightAware
06:01PM 33.8730 -118.3860 223° Southwest 270 311 8,000  Level FlightAware
06:01PM 33.8460 -118.4160 223° Southwest 268 308 8,000 -480 Level FlightAware
06:01PM 33.8330 -118.4480 244° Southwest 266 306 7,600 -1,200 Descending FlightAware
06:02PM 33.8310 -118.4920 267° West 267 307 6,900 -1,620 Descending FlightAware
06:02PM 33.8300 -118.5370 268° West 274 315 6,000 -1,500 Descending FlightAware
06:03PM 33.8280 -118.5820 267° West 272 313 5,400 -780 Descending FlightAware
06:04PM 33.8250 -118.6310 266° West 272 313 5,100 -1,680 Descending FlightAware
06:04PM 33.8230 -118.6780 267° West 267 307 3,600 -1,800 Descending FlightAware
06:04PM 33.8220 -118.7140 268° West 267 307 3,600 -1,680 Level FlightAware
06:05PM 33.8390 -118.7280 326° Northwest 259 298 2,500 -1,140 Descending FlightAware
06:06PM 33.9020 -118.7030 18° North 218 251 2,000 -300 Descending FlightAware
06:07PM 33.9100 -118.6560 78° East 180 207 2,000  Level FlightAware
06:07PM 33.9120 -118.6320 84° East 181 208 2,000  Level FlightAware
06:08PM 33.9160 -118.5880 84° East 2,000  Level FlightAware
06:08PM 33.9190 -118.5630 82° East 183 211 2,000  Level FlightAware
06:09PM 33.9210 -118.5430 83° East 182 209 2,000 -120 Level FlightAware
06:09PM 33.9250 -118.5030 83° East 176 203 1,900 -840 Descending FlightAware
06:09PM 33.9272 -118.4894 83° East 171 197 1,300 -960 Descending Los Angeles Center
06:11PM 33.9311 -118.4500 83° East 135 155 700 -540 Descending Los Angeles Center
06:12PM 33.9375 -118.4011 81° East 133 153 200 -540 Descending Los Angeles Center